地図

経路データ

SID SEASON NUMBER BASIN SUBBASIN NAME ISO_TIME NATURE LAT LON WMO_WIND WMO_PRES WMO_AGENCY TRACK_TYPE DIST2LAND LANDFALL IFLAG USA_AGENCY USA_ATCF_ID USA_LAT USA_LON USA_RECORD USA_STATUS USA_WIND USA_PRES USA_SSHS USA_R34_NE USA_R34_SE USA_R34_SW USA_R34_NW USA_R50_NE USA_R50_SE USA_R50_SW USA_R50_NW USA_R64_NE USA_R64_SE USA_R64_SW USA_R64_NW USA_POCI USA_ROCI USA_RMW USA_EYE TOKYO_LAT TOKYO_LON TOKYO_GRADE TOKYO_WIND TOKYO_PRES TOKYO_R50_DIR TOKYO_R50_LONG TOKYO_R50_SHORT TOKYO_R30_DIR TOKYO_R30_LONG TOKYO_R30_SHORT TOKYO_LAND CMA_LAT CMA_LON CMA_CAT CMA_WIND CMA_PRES HKO_LAT HKO_LON HKO_CAT HKO_WIND HKO_PRES NEWDELHI_LAT NEWDELHI_LON NEWDELHI_GRADE NEWDELHI_WIND NEWDELHI_PRES NEWDELHI_CI NEWDELHI_DP NEWDELHI_POCI REUNION_LAT REUNION_LON REUNION_TYPE REUNION_WIND REUNION_PRES REUNION_TNUM REUNION_CI REUNION_RMW REUNION_R34_NE REUNION_R34_SE REUNION_R34_SW REUNION_R34_NW REUNION_R50_NE REUNION_R50_SE REUNION_R50_SW REUNION_R50_NW REUNION_R64_NE REUNION_R64_SE REUNION_R64_SW REUNION_R64_NW BOM_LAT BOM_LON BOM_TYPE BOM_WIND BOM_PRES BOM_TNUM BOM_CI BOM_RMW BOM_R34_NE BOM_R34_SE BOM_R34_SW BOM_R34_NW BOM_R50_NE BOM_R50_SE BOM_R50_SW BOM_R50_NW BOM_R64_NE BOM_R64_SE BOM_R64_SW BOM_R64_NW BOM_ROCI BOM_POCI BOM_EYE BOM_POS_METHOD BOM_PRES_METHOD NADI_LAT NADI_LON NADI_CAT NADI_WIND NADI_PRES WELLINGTON_LAT WELLINGTON_LON WELLINGTON_WIND WELLINGTON_PRES DS824_LAT DS824_LON DS824_STAGE DS824_WIND DS824_PRES TD9636_LAT TD9636_LON TD9636_STAGE TD9636_WIND TD9636_PRES TD9635_LAT TD9635_LON TD9635_WIND TD9635_PRES TD9635_ROCI NEUMANN_LAT NEUMANN_LON NEUMANN_CLASS NEUMANN_WIND NEUMANN_PRES MLC_LAT MLC_LON MLC_CLASS MLC_WIND MLC_PRES USA_GUST BOM_GUST BOM_GUST_PER REUNION_GUST REUNION_GUST_PER USA_SEAHGT USA_SEARAD_NE USA_SEARAD_SE USA_SEARAD_SW USA_SEARAD_NW STORM_SPEED STORM_DIR
2000025S15056 2000 7 SI MM CONNIE 2000-01-25 00:00:00 TS -15.2333 56.1667 20 1003 reunion main 565 565 O____O______O_ jtwc_sh SH082000 -15.2000 56.2000 20 -1 -15.3000 56.1000 2 20 1003 1.50000 1.50000 -15.2000 56.2000 TC 20 3 281
2000025S15056 2000 7 SI MM CONNIE 2000-01-25 03:00:00 TS -15.2092 56.0384 main 570 570 P____P______P_ SH082000 -15.1475 56.1025 22 -1 -15.3325 55.9101 2 22 1001 -15.1475 56.1025 TC 22 3 285
2000025S15056 2000 7 SI MM CONNIE 2000-01-25 06:00:00 TS -15.1667 55.9000 25 1000 reunion main 573 569 O____O______O_ jtwc_sh SH082000 -15.1000 56.0000 25 -1 -15.3000 55.7000 2 25 1000 2.00000 2.00000 -15.1000 56.0000 TC 25 3 293
2000025S15056 2000 7 SI MM CONNIE 2000-01-25 09:00:00 TS -15.0933 55.7516 main 569 548 P____P______P_ SH082000 -15.0575 55.8925 25 -1 -15.1650 55.4699 2 27 998 -15.0575 55.8925 TC 25 3 303
2000025S15056 2000 7 SI MM CONNIE 2000-01-25 12:00:00 TS -15.0000 55.6333 30 997 reunion main 548 548 O____O______O_ jtwc_sh SH082000 -15.0000 55.8000 25 -1 -15.0000 55.3000 2 30 997 2.50000 2.50000 -15.0000 55.8000 TC 25 3 320
2000025S15056 2000 7 SI MM CONNIE 2000-01-25 15:00:00 TS -14.9000 55.5850 main 548 548 P____P______P_ SH082000 -14.9075 55.7425 30 -1 -14.8850 55.2701 2 32 995 -14.9075 55.7425 TC 30 2 340
2000025S15056 2000 7 SI MM CONNIE 2000-01-25 18:00:00 TS -14.8000 55.5667 35 993 reunion main 549 539 O____O______O_ jtwc_sh SH082000 -14.8000 55.7000 35 0 -14.8000 55.3000 3 35 993 3.00000 3.00000 -14.8000 55.7000 TC 35 2 345
2000025S15056 2000 7 SI MM CONNIE 2000-01-25 21:00:00 TS -14.7092 55.5258 main 540 540 P____P______P_ SH082000 -14.6925 55.6425 35 0 -14.7425 55.2925 3 37 991 -14.6925 55.6425 TC 35 2 337
2000025S15056 2000 7 SI MM CONNIE 2000-01-26 00:00:00 TS -14.6333 55.5000 40 990 reunion main 541 541 O____O______O_ jtwc_sh SH082000 -14.6000 55.6000 35 0 -14.7000 55.3000 3 40 990 3.00000 3.00000 -14.6000 55.6000 TC 35 1 348
2000025S15056 2000 7 SI MM CONNIE 2000-01-26 03:00:00 TS -14.5808 55.5017 main 541 541 P____P______P_ SH082000 -14.5425 55.5850 35 0 -14.6575 55.3350 3 41 989 -14.5425 55.5850 TC 35 1 17
2000025S15056 2000 7 SI MM CONNIE 2000-01-26 06:00:00 TS -14.5333 55.5333 43 988 reunion main 543 543 O____O______O_ jtwc_sh SH082000 -14.5000 55.6000 35 0 -14.6000 55.4000 3 43 988 3.00000 3.00000 -14.5000 55.6000 TC 35 1 36
2000025S15056 2000 7 SI MM CONNIE 2000-01-26 09:00:00 TS -14.4617 55.5900 main 553 553 P____P______P_ SH082000 -14.4425 55.6350 40 0 -14.5000 55.5000 3 43 988 -14.4425 55.6350 TC 40 2 44
2000025S15056 2000 7 SI MM CONNIE 2000-01-26 12:00:00 TS -14.4000 55.6667 43 988 reunion main 566 566 O____O______O_ jtwc_sh SH082000 -14.4000 55.7000 45 0 -14.4000 55.6000 3 43 988 3.00000 3.00000 -14.4000 55.7000 TC 45 2 51
2000025S15056 2000 7 SI MM CONNIE 2000-01-26 15:00:00 TS -14.3483 55.7375 main 568 568 P____P______P_ SH082000 -14.3700 55.7850 50 0 -14.3050 55.6425 3 46 985 -14.3700 55.7850 TC 50 2 79
2000025S15056 2000 7 SI MM CONNIE 2000-01-26 18:00:00 TS -14.3667 55.8333 50 983 reunion main 577 577 O____O______O_ jtwc_sh SH082000 -14.4000 55.9000 55 0 -14.3000 55.7000 3 50 983 3.50000 3.50000 -14.4000 55.9000 TC 55 3 123
2000025S15056 2000 7 SI MM CONNIE 2000-01-26 21:00:00 TS -14.4983 55.9758 main 596 595 P____P______P_ SH082000 -14.5200 56.0500 57 0 -14.4550 55.8275 3 55 979 -14.5200 56.0500 TC 57 4 139
2000025S15056 2000 7 SI MM CONNIE 2000-01-27 00:00:00 TS -14.7000 56.1333 60 975 reunion main 604 595 O____O______O_ jtwc_sh SH082000 -14.7000 56.2000 60 0 -14.7000 56.0000 3 60 975 4.00000 4.00000 -14.7000 56.2000 TC 60 5 145
2000025S15056 2000 7 SI MM CONNIE 2000-01-27 03:00:00 TS -14.9092 56.2742 main 595 571 P____P______P_ SH082000 -14.8925 56.3075 62 0 -14.9425 56.2075 3 65 970 -14.8925 56.3075 TC 62 5 149
2000025S15056 2000 7 SI MM CONNIE 2000-01-27 06:00:00 TS -15.1333 56.4000 70 965 reunion main 571 547 O____O______O_ jtwc_sh SH082000 -15.1000 56.4000 65 1 -15.2000 56.4000 4 70 965 4.50000 4.50000 -15.1000 56.4000 TC 65 5 153
2000025S15056 2000 7 SI MM CONNIE 2000-01-27 09:00:00 TS -15.3550 56.5050 main 536 512 P____P______P_ SH082000 -15.3000 56.5000 75 1 -15.4650 56.5151 4 75 960 -15.3000 56.5000 TC 75 5 156
2000025S15056 2000 7 SI MM CONNIE 2000-01-27 12:00:00 TS -15.5667 56.6000 80 955 reunion main 512 499 O____O______O_ jtwc_sh SH082000 -15.5000 56.6000 85 2 -15.7000 56.6000 4 80 955 5.00000 5.00000 -15.5000 56.6000 TC 85 4 154
2000025S15056 2000 7 SI MM CONNIE 2000-01-27 15:00:00 TS -15.7525 56.7000 main 488 475 P____P______P_ SH082000 -15.7000 56.7000 100 3 -15.8575 56.7000 4 85 947 -15.7000 56.7000 TC 100 4 152
2000025S15056 2000 7 SI MM CONNIE 2000-01-27 18:00:00 TS -15.9333 56.8000 90 940 reunion main 475 452 O____O______O_ jtwc_sh SH082000 -15.9000 56.8000 115 4 -16.0000 56.8000 4 90 940 5.50000 5.50000 -15.9000 56.8000 TC 115 4 151
2000025S15056 2000 7 SI MM CONNIE 2000-01-27 21:00:00 TS -16.1333 56.9125 main 452 428 P____P______P_ SH082000 -16.1000 56.9150 117 4 -16.2000 56.9075 4 90 940 -16.1000 56.9150 TC 117 4 154
2000025S15056 2000 7 SI MM CONNIE 2000-01-28 00:00:00 TS -16.3333 57.0000 90 940 reunion main 428 406 O____O______O_ jtwc_sh SH082000 -16.3000 57.0000 120 4 -16.4000 57.0000 4 90 940 5.50000 5.50000 -16.3000 57.0000 TC 120 4 163
2000025S15056 2000 7 SI MM CONNIE 2000-01-28 03:00:00 TS -16.5167 57.0342 main 406 384 P____P______P_ SH082000 -16.5000 57.0150 115 4 -16.5500 57.0725 4 92 937 -16.5000 57.0150 TC 115 4 174
2000025S15056 2000 7 SI MM CONNIE 2000-01-28 06:00:00 TS -16.7000 57.0333 95 935 reunion main 384 361 O____O______O_ jtwc_sh SH082000 -16.7000 57.0000 110 3 -16.7000 57.1000 4 95 935 6.00000 6.00000 -16.7000 57.0000 TC 110 4 178
2000025S15056 2000 7 SI MM CONNIE 2000-01-28 09:00:00 TS -16.8875 57.0491 main 361 339 P____P______P_ SH082000 -16.8925 57.0299 110 3 -16.8775 57.0874 4 97 932 -16.8925 57.0299 TC 110 4 185
2000025S15056 2000 7 SI MM CONNIE 2000-01-28 12:00:00 TS -17.1000 57.0000 100 930 reunion main 339 319 O____O______O_ jtwc_sh SH082000 -17.1000 57.0000 110 3 -17.1000 57.0000 4 100 930 6.00000 6.00000 -17.1000 57.0000 TC 110 5 204
2000025S15056 2000 7 SI MM CONNIE 2000-01-28 15:00:00 TS -17.3617 56.8326 main 310 292 P____P______P_ SH082000 -17.3425 56.8375 107 3 -17.4000 56.8226 4 100 930 -17.3425 56.8375 TC 107 7 216
2000025S15056 2000 7 SI MM CONNIE 2000-01-28 18:00:00 TS -17.6333 56.6000 100 930 reunion main 295 277 O____O______O_ jtwc_sh SH082000 -17.6000 56.6000 105 3 -17.7000 56.6000 4 100 930 5.50000 6.00000 -17.6000 56.6000 TC 105 6 221
2000025S15056 2000 7 SI MM CONNIE 2000-01-28 21:00:00 TS -17.8415 56.3963 main 282 262 P____P______P_ SH082000 -17.8199 56.3722 100 3 -17.8848 56.4445 4 100 930 -17.8199 56.3722 TC 100 6 224
2000025S15056 2000 7 SI MM CONNIE 2000-01-29 00:00:00 TS -18.1000 56.1333 100 930 reunion main 267 252 O____O______O_ jtwc_sh SH082000 -18.1000 56.1000 95 2 -18.1000 56.2000 4 100 930 5.00000 6.00000 -18.1000 56.1000 TC 95 9 223
2000025S15056 2000 7 SI MM CONNIE 2000-01-29 03:00:00 TS -18.4985 55.7510 main 252 234 P____P______P_ SH082000 -18.5200 55.7651 92 2 -18.4553 55.7228 4 97 932 -18.5200 55.7651 TC 92 12 221
2000025S15056 2000 7 SI MM CONNIE 2000-01-29 06:00:00 TS -18.9667 55.3333 95 935 reunion main 223 181 O____O______O_ jtwc_sh SH082000 -19.0000 55.4000 90 2 -18.9000 55.2000 4 95 935 5.00000 5.50000 -19.0000 55.4000 TC 90 12 218
2000025S15056 2000 7 SI MM CONNIE 2000-01-29 09:00:00 TS -19.4231 54.9904 main 181 137 P____P______P_ SH082000 -19.4423 55.0646 85 2 -19.3847 54.8421 4 90 942 -19.4423 55.0646 TC 85 11 215
2000025S15056 2000 7 SI MM CONNIE 2000-01-29 12:00:00 TS -19.9000 54.6333 85 950 reunion main 143 129 O____O______O_ jtwc_sh SH082000 -19.9000 54.7000 80 1 -19.9000 54.5000 4 85 950 4.50000 5.50000 -19.9000 54.7000 TC 80 12 218
2000025S15056 2000 7 SI MM CONNIE 2000-01-29 15:00:00 TS -20.3875 54.1957 main 130 130 P____P______P_ SH082000 -20.3851 54.2574 80 1 -20.3924 54.0722 4 80 955 -20.3851 54.2574 TC 80 13 220
2000025S15056 2000 7 SI MM CONNIE 2000-01-29 18:00:00 TS -20.9000 53.7333 75 960 reunion main 157 156 O____O______O_ jtwc_sh SH082000 -20.9000 53.8000 80 1 -20.9000 53.6000 4 75 960 4.50000 5.00000 -20.9000 53.8000 TC 80 13 218
2000025S15056 2000 7 SI MM CONNIE 2000-01-29 21:00:00 TS -21.4372 53.3169 main 199 199 P____P______P_ SH082000 -21.4346 53.4217 75 1 -21.4424 53.1073 4 72 962 -21.4346 53.4217 TC 75 14 216
2000025S15056 2000 7 SI MM CONNIE 2000-01-30 00:00:00 TS -22.0000 52.8667 70 965 reunion main 258 258 O____O______O_ jtwc_sh SH082000 -22.0000 53.0000 70 1 -22.0000 52.6000 4 70 965 4.00000 4.50000 -22.0000 53.0000 TC 70 15 219
2000025S15056 2000 7 SI MM CONNIE 2000-01-30 03:00:00 TS -22.5735 52.3074 main 341 341 P____P______P_ SH082000 -22.5927 52.4151 67 1 -22.5349 52.0920 4 70 966 -22.5927 52.4151 TC 67 16 222
2000025S15056 2000 7 SI MM CONNIE 2000-01-30 06:00:00 TS -23.1667 51.7333 70 968 reunion main 392 359 O____O______O_ jtwc_sh SH082000 -23.2000 51.8000 65 1 -23.1000 51.6000 4 70 968 4.00000 4.50000 -23.2000 51.8000 TC 65 16 219
2000025S15056 2000 7 SI MM CONNIE 2000-01-30 09:00:00 TS -23.8008 51.2076 main 359 330 P____P______P_ SH082000 -23.8299 51.2550 65 1 -23.7425 51.1126 4 65 970 -23.8299 51.2550 TC 65 15 216
2000025S15056 2000 7 SI MM CONNIE 2000-01-30 12:00:00 TS -24.4000 50.7667 60 973 reunion main 334 306 O____O______O_ jtwc_sh SH082000 -24.4000 50.8000 65 1 -24.4000 50.7000 3 60 973 3.50000 4.00000 -24.4000 50.8000 TC 65 13 214
2000025S15056 2000 7 SI MM CONNIE 2000-01-30 15:00:00 TS -24.8840 50.4105 main 310 302 P____P______P_ SH082000 -24.8074 50.4246 65 1 -25.0374 50.3824 3 60 974 -24.8074 50.4246 TC 65 11 209
2000025S15056 2000 7 SI MM CONNIE 2000-01-30 18:00:00 TS -25.3333 50.2000 60 975 reunion main 305 305 O____O______O_ jtwc_sh SH082000 -25.2000 50.2000 65 1 -25.6000 50.2000 3 60 975 3.50000 4.00000 -25.2000 50.2000 TC 65 10 195
2000025S15056 2000 7 SI MM CONNIE 2000-01-30 21:00:00 TS -25.8082 50.1422 main 314 314 P____P______P_ SH082000 -25.7124 50.1398 65 1 -25.9999 50.1472 3 60 975 -25.7124 50.1398 TC 65 10 179
2000025S15056 2000 7 SI MM CONNIE 2000-01-31 00:00:00 TS -26.3333 50.2000 60 975 reunion main 342 342 O____O______O_ jtwc_sh SH082000 -26.3000 50.2000 65 1 -26.4000 50.2000 3 60 975 3.50000 4.00000 -26.3000 50.2000 TC 65 12 174
2000025S15056 2000 7 SI MM CONNIE 2000-01-31 03:00:00 TS -26.9516 50.2652 main 389 389 P____P______P_ SH082000 -26.9424 50.2627 60 0 -26.9700 50.2701 3 57 977 -26.9424 50.2627 TC 60 13 172
2000025S15056 2000 7 SI MM CONNIE 2000-01-31 06:00:00 TS -27.6000 50.4000 55 980 reunion main 438 438 O____O______O_ jtwc_sh SH082000 -27.6000 50.4000 55 0 -27.6000 50.4000 3 55 980 3.50000 4.00000 -27.6000 50.4000 TC 55 13 166
2000025S15056 2000 7 SI MM CONNIE 2000-01-31 09:00:00 TS -28.2300 50.6156 main 497 497 P____P______P_ SH082000 -28.2301 50.6347 55 0 -28.2300 50.5774 3 55 980 -28.2301 50.6347 TC 55 13 161
2000025S15056 2000 7 SI MM CONNIE 2000-01-31 12:00:00 TS -28.8000 50.8667 55 980 reunion main 565 565 O____O______O_ jtwc_sh SH082000 -28.8000 50.9000 55 0 -28.8000 50.8000 3 55 980 3.50000 4.00000 -28.8000 50.9000 TC 55 11 159
2000025S15056 2000 7 SI MM CONNIE 2000-01-31 15:00:00 TS -29.2632 51.0788 main 619 619 P____P______P_ SH082000 -29.2799 51.1005 60 0 -29.2299 51.0354 3 52 981 -29.2799 51.1005 TC 60 9 156
2000025S15056 2000 7 SI MM CONNIE 2000-01-31 18:00:00 TS -29.6667 51.3000 50 983 reunion main 665 665 O____O______O_ jtwc_sh SH082000 -29.7000 51.3000 65 1 -29.6000 51.3000 3 50 983 3.00000 3.50000 -29.7000 51.3000 TC 65 9 153
2000025S15056 2000 7 SI MM CONNIE 2000-01-31 21:00:00 TS -30.0792 51.5642 main 718 718 P____P______P_ SH082000 -30.1075 51.5427 62 0 -30.0226 51.6073 3 50 984 -30.1075 51.5427 TC 62 9 150
2000025S15056 2000 7 SI MM CONNIE 2000-02-01 00:00:00 TS -30.4667 51.8333 50 985 reunion main 765 765 O____O______O_ jtwc_sh SH082000 -30.5000 51.8000 60 0 -30.4000 51.9000 3 50 985 2.50000 3.50000 -30.5000 51.8000 TC 60 9 150
2000025S15056 2000 7 SI MM CONNIE 2000-02-01 03:00:00 TS -30.8416 52.0743 main 809 809 P____P______P_ SH082000 -30.9300 52.0574 52 0 -30.6648 52.1080 3 47 986 -30.9300 52.0574 TC 52 8 150
2000025S15056 2000 7 SI MM CONNIE 2000-02-01 06:00:00 MX -31.1667 52.3000 45 988 reunion main 855 855 O____O______O_ jtwc_sh SH082000 -31.3000 52.3000 45 0 -30.9000 52.3000 5 45 988 9.90000 -31.3000 52.3000 TC 45 7 147
2000025S15056 2000 7 SI MM CONNIE 2000-02-01 09:00:00 MX -31.4174 52.5120 main 885 885 P____P______P_ SH082000 -31.5224 52.5005 40 0 -31.2074 52.5350 5 45 988 -31.5224 52.5005 TC 40 6 142
2000025S15056 2000 7 SI MM CONNIE 2000-02-01 12:00:00 MX -31.6333 52.7333 45 988 reunion main 914 914 O____O______O_ jtwc_sh SH082000 -31.7000 52.7000 35 0 -31.5000 52.8000 5 45 988 9.90000 -31.7000 52.7000 TC 35 6 137
2000025S15056 2000 7 SI MM CONNIE 2000-02-01 15:00:00 MX -31.8591 52.9902 main 958 958 P____P______P_ SH082000 -31.9349 52.9352 35 0 -31.7075 53.1002 5 42 989 -31.9349 52.9352 TC 35 7 136
2000025S15056 2000 7 SI MM CONNIE 2000-02-01 18:00:00 MX -32.1000 53.2667 40 990 reunion main 993 993 O____O______O_ jtwc_sh SH082000 -32.2000 53.2000 35 0 -31.9000 53.4000 5 40 990 9.90000 -32.2000 53.2000 TC 35 7 138
2000025S15056 2000 7 SI MM CONNIE 2000-02-01 21:00:00 MX -32.3732 53.5377 main 1031 1031 P____P______P_ SH082000 -32.4924 53.4851 30 -1 -32.1348 53.6428 5 40 990 -32.4924 53.4851 TC 30 7 140
2000025S15056 2000 7 SI MM CONNIE 2000-02-02 00:00:00 MX -32.6667 53.8333 40 990 reunion main 1074 1074 O____O______O_ jtwc_sh SH082000 -32.8000 53.8000 25 -1 -32.4000 53.9000 5 40 990 9.90000 -32.8000 53.8000 TC 25 8 139
2000025S15056 2000 7 SI MM CONNIE 2000-02-02 03:00:00 MX -32.9386 54.1270 main 1109 1109 P____P______P_ SH082000 -33.0693 54.0840 25 -1 -32.6773 54.2130 5 40 991 -33.0693 54.0840 TC 25 8 136
2000025S15056 2000 7 SI MM CONNIE 2000-02-02 06:00:00 MX -33.2667 54.5333 40 992 reunion main 1168 1168 O____O______O_ jtwc_sh SH082000 -33.4000 54.5000 25 -1 -33.0000 54.6000 5 40 992 9.90000 -33.4000 54.5000 TC 25 11 132
2000025S15056 2000 7 SI MM CONNIE 2000-02-02 09:00:00 MX -33.7021 55.1375 main 1238 1238 P____P______P_ SH082000 -33.8617 55.1694 25 -1 -33.3830 55.0737 5 37 993 -33.8617 55.1694 TC 25 15 130
2000025S15056 2000 7 SI MM CONNIE 2000-02-02 12:00:00 MX -34.2000 55.8667 35 995 reunion main 1328 O____O______O_ jtwc_sh SH082000 -34.4000 56.0000 25 -1 -33.8000 55.6000 5 35 995 9.90000 -34.4000 56.0000 TC 25 16 130

IBTrACS Databaseについて

本データベースは、米国NOAAが公開する1842年以降の世界の熱帯低気圧のベストトラックデータアーカイブInternational Best Track Archive for Climate Stewardship (IBTrACS)を、ウェブで閲覧しやすい形式に変換したものです。

最終更新日:2021-10-25